METAR Data
IDs: Format: Raw Decoded Include TAF

Data at: 2126 UTC 01 Dec 2021

METAR for:KIND (Indianapolis Intl, IN, US)
Text:KIND 012054Z 20006KT 9SM FEW008 BKN015 OVC250 07/06 A2987 RMK AO2 RAE1959 SLP118 P0000 60013 T00720056 55025
Temperature: 7.2°C ( 45°F)
Dewpoint: 5.6°C ( 42°F) [RH = 90%]
Pressure (altimeter):29.87 inches Hg (1011.6 mb) [Sea level pressure: 1011.8 mb]
Winds:from the SSW (200 degrees) at 7 MPH (6 knots; 3.1 m/s)
Visibility: 9 sm ( 14 km)
Ceiling:1500 feet AGL
Clouds: few clouds at 800 feet AGL, broken clouds at 1500 feet AGL, overcast cloud deck at 25000 feet AGL